This is the latest recevied weather packets stored in our database for station/object AD7ZD. If no packets are shown the sender has not sent any weather packets the latest 10 day(s).
| Time | Temp. | Humidity | Pressure | Rain* | Wind** | Luminosity | Snow |
|---|---|---|---|---|---|---|---|
| 1778114346 | 24.44° C | 23% | 1016 hPa | 0 mm | - | 296 W/m² | - |
| 1778114041 | 25° C | 22% | 1016.2 hPa | 0 mm | - | 303 W/m² | - |
| 1778113737 | 24.44° C | 23% | 1016.1 hPa | 0 mm | - | 314 W/m² | - |
| 1778113433 | 24.44° C | 23% | 1016.2 hPa | 0 mm | - | 363 W/m² | - |
| 1778113130 | 24.44° C | 23% | 1016.2 hPa | 0 mm | - | 374 W/m² | - |
| 1778112827 | 24.44° C | 22% | 1016.3 hPa | 0 mm | - | 379 W/m² | - |
| 1778112524 | 24.44° C | 24% | 1016.2 hPa | 0 mm | - | 365 W/m² | - |
| 1778112219 | 25° C | 23% | 1016.1 hPa | 0 mm | - | 388 W/m² | - |
| 1778111916 | 25° C | 23% | 1016.2 hPa | 0 mm | - | 363 W/m² | - |
| 1778111613 | 25° C | 23% | 1016.1 hPa | 0 mm | - | 472 W/m² | - |
| 1778111309 | 25° C | 23% | 1016.2 hPa | 0 mm | - | 440 W/m² | - |
| 1778111007 | 25° C | 23% | 1016.2 hPa | 0 mm | - | 366 W/m² | - |
| 1778110704 | 24.44° C | 24% | 1016.2 hPa | 0 mm | - | 483 W/m² | - |
| 1778110400 | 24.44° C | 23% | 1016.3 hPa | 0 mm | - | 475 W/m² | - |
| 1778110097 | 23.89° C | 23% | 1016.3 hPa | 0 mm | - | 533 W/m² | - |
| 1778109792 | 25° C | 23% | 1016.3 hPa | 0 mm | - | 481 W/m² | - |
| 1778109489 | 24.44° C | 25% | 1016.4 hPa | 0 mm | - | 560 W/m² | - |
| 1778109187 | 23.89° C | 25% | 1016.3 hPa | 0 mm | - | 571 W/m² | - |
| 1778108884 | 24.44° C | 25% | 1016.8 hPa | 0 mm | - | 553 W/m² | - |
| 1778108581 | 24.44° C | 25% | 1016.6 hPa | 0 mm | - | 554 W/m² | - |
| 1778108277 | 23.89° C | 25% | 1016.6 hPa | 0 mm | - | 595 W/m² | - |
| 1778107975 | 23.89° C | 24% | 1016.6 hPa | 0 mm | - | 580 W/m² | - |
| 1778107671 | 23.89° C | 26% | 1016.8 hPa | 0 mm | - | 595 W/m² | - |
| 1778107369 | 23.33° C | 25% | 1016.8 hPa | 0 mm | - | 571 W/m² | - |
| 1778107064 | 24.44° C | 25% | 1016.8 hPa | 0 mm | - | 519 W/m² | - |
* Rain latest hour (hover to see other rain measurements)
** Current wind speed in m/s (hover to see current wind gust speed)